sensor_id;sensor_type;location;lat;lon;timestamp;P1;durP1;ratioP1;P2;durP2;ratioP2
7719;SDS011;3902;49.474;8.616;2024-03-07T00:00:00;29.43;;;25.20;;
7719;SDS011;3902;49.474;8.616;2024-03-07T00:02:35;28.53;;;24.53;;
7719;SDS011;3902;49.474;8.616;2024-03-07T00:05:01;29.60;;;24.33;;
7719;SDS011;3902;49.474;8.616;2024-03-07T00:07:26;29.40;;;24.73;;
7719;SDS011;3902;49.474;8.616;2024-03-07T00:09:52;28.50;;;24.03;;
7719;SDS011;3902;49.474;8.616;2024-03-07T00:12:18;28.17;;;24.00;;
7719;SDS011;3902;49.474;8.616;2024-03-07T00:14:44;27.10;;;22.07;;
7719;SDS011;3902;49.474;8.616;2024-03-07T00:17:10;26.70;;;23.33;;
7719;SDS011;3902;49.474;8.616;2024-03-07T00:19:36;26.73;;;23.83;;
7719;SDS011;3902;49.474;8.616;2024-03-07T00:22:01;31.90;;;26.50;;
7719;SDS011;3902;49.474;8.616;2024-03-07T00:24:27;30.30;;;24.97;;
7719;SDS011;3902;49.474;8.616;2024-03-07T00:26:52;27.43;;;24.43;;
7719;SDS011;3902;49.474;8.616;2024-03-07T00:29:18;27.57;;;22.97;;
7719;SDS011;3902;49.474;8.616;2024-03-07T00:31:47;26.87;;;23.73;;
7719;SDS011;3902;49.474;8.616;2024-03-07T00:34:13;30.10;;;25.47;;
7719;SDS011;3902;49.474;8.616;2024-03-07T00:36:41;26.23;;;23.43;;
7719;SDS011;3902;49.474;8.616;2024-03-07T00:39:07;28.30;;;23.70;;
7719;SDS011;3902;49.474;8.616;2024-03-07T00:41:39;31.03;;;25.53;;
7719;SDS011;3902;49.474;8.616;2024-03-07T00:44:06;29.93;;;25.10;;
7719;SDS011;3902;49.474;8.616;2024-03-07T00:46:33;29.70;;;24.40;;
7719;SDS011;3902;49.474;8.616;2024-03-07T00:49:00;28.70;;;24.40;;
7719;SDS011;3902;49.474;8.616;2024-03-07T00:51:26;26.43;;;23.30;;
7719;SDS011;3902;49.474;8.616;2024-03-07T00:53:51;30.97;;;25.57;;
7719;SDS011;3902;49.474;8.616;2024-03-07T00:56:17;27.50;;;24.33;;
7719;SDS011;3902;49.474;8.616;2024-03-07T00:58:43;32.00;;;26.80;;
7719;SDS011;3902;49.474;8.616;2024-03-07T01:01:09;28.83;;;24.50;;
7719;SDS011;3902;49.474;8.616;2024-03-07T01:03:36;28.20;;;24.93;;
7719;SDS011;3902;49.474;8.616;2024-03-07T01:06:02;30.83;;;25.13;;
7719;SDS011;3902;49.474;8.616;2024-03-07T01:08:28;29.17;;;25.80;;
7719;SDS011;3902;49.474;8.616;2024-03-07T01:10:53;29.50;;;26.17;;
7719;SDS011;3902;49.474;8.616;2024-03-07T01:13:19;22.30;;;19.00;;
7719;SDS011;3902;49.474;8.616;2024-03-07T01:15:47;27.50;;;24.60;;
7719;SDS011;3902;49.474;8.616;2024-03-07T01:18:13;27.73;;;24.67;;
7719;SDS011;3902;49.474;8.616;2024-03-07T01:20:39;28.07;;;23.87;;
7719;SDS011;3902;49.474;8.616;2024-03-07T01:23:05;26.80;;;23.90;;
7719;SDS011;3902;49.474;8.616;2024-03-07T01:25:30;26.23;;;23.27;;
7719;SDS011;3902;49.474;8.616;2024-03-07T01:27:59;26.43;;;23.63;;
7719;SDS011;3902;49.474;8.616;2024-03-07T01:30:25;26.33;;;23.53;;
7719;SDS011;3902;49.474;8.616;2024-03-07T01:32:53;28.30;;;23.93;;
7719;SDS011;3902;49.474;8.616;2024-03-07T01:35:21;25.30;;;22.43;;
7719;SDS011;3902;49.474;8.616;2024-03-07T01:37:47;27.13;;;24.23;;
7719;SDS011;3902;49.474;8.616;2024-03-07T01:40:12;29.50;;;24.70;;
7719;SDS011;3902;49.474;8.616;2024-03-07T01:42:39;28.27;;;24.13;;
7719;SDS011;3902;49.474;8.616;2024-03-07T01:45:05;30.60;;;26.07;;
7719;SDS011;3902;49.474;8.616;2024-03-07T01:47:33;27.03;;;24.07;;
7719;SDS011;3902;49.474;8.616;2024-03-07T01:50:01;29.07;;;24.73;;
7719;SDS011;3902;49.474;8.616;2024-03-07T01:52:29;27.67;;;24.43;;
7719;SDS011;3902;49.474;8.616;2024-03-07T01:54:55;27.80;;;24.30;;
7719;SDS011;3902;49.474;8.616;2024-03-07T01:57:21;27.03;;;23.60;;
7719;SDS011;3902;49.474;8.616;2024-03-07T01:59:47;28.37;;;24.60;;
7719;SDS011;3902;49.474;8.616;2024-03-07T02:02:13;27.20;;;23.00;;
7719;SDS011;3902;49.474;8.616;2024-03-07T02:04:38;30.13;;;25.80;;
7719;SDS011;3902;49.474;8.616;2024-03-07T02:07:04;30.33;;;24.27;;
7719;SDS011;3902;49.474;8.616;2024-03-07T02:09:30;29.53;;;24.70;;
7719;SDS011;3902;49.474;8.616;2024-03-07T02:11:55;26.90;;;23.70;;
7719;SDS011;3902;49.474;8.616;2024-03-07T02:14:21;26.73;;;23.93;;
7719;SDS011;3902;49.474;8.616;2024-03-07T02:16:46;25.93;;;23.17;;
7719;SDS011;3902;49.474;8.616;2024-03-07T02:19:13;27.40;;;24.40;;
7719;SDS011;3902;49.474;8.616;2024-03-07T02:21:40;27.37;;;23.57;;
7719;SDS011;3902;49.474;8.616;2024-03-07T02:24:05;28.43;;;24.03;;
7719;SDS011;3902;49.474;8.616;2024-03-07T02:26:31;27.03;;;24.00;;
7719;SDS011;3902;49.474;8.616;2024-03-07T02:28:57;26.80;;;23.90;;
7719;SDS011;3902;49.474;8.616;2024-03-07T02:31:22;26.67;;;22.40;;
7719;SDS011;3902;49.474;8.616;2024-03-07T02:34:00;27.63;;;24.37;;
7719;SDS011;3902;49.474;8.616;2024-03-07T02:36:26;27.43;;;23.47;;
7719;SDS011;3902;49.474;8.616;2024-03-07T02:38:52;28.97;;;24.33;;
7719;SDS011;3902;49.474;8.616;2024-03-07T02:41:18;27.07;;;23.90;;
7719;SDS011;3902;49.474;8.616;2024-03-07T02:43:43;26.50;;;23.60;;
7719;SDS011;3902;49.474;8.616;2024-03-07T02:46:08;24.60;;;22.10;;
7719;SDS011;3902;49.474;8.616;2024-03-07T02:48:36;24.83;;;22.23;;
7719;SDS011;3902;49.474;8.616;2024-03-07T02:51:02;25.90;;;23.07;;
7719;SDS011;3902;49.474;8.616;2024-03-07T02:53:30;26.50;;;23.70;;
7719;SDS011;3902;49.474;8.616;2024-03-07T02:55:57;25.37;;;22.60;;
7719;SDS011;3902;49.474;8.616;2024-03-07T02:58:23;25.07;;;22.37;;
7719;SDS011;3902;49.474;8.616;2024-03-07T03:00:49;25.23;;;21.00;;
7719;SDS011;3902;49.474;8.616;2024-03-07T03:03:24;24.43;;;21.83;;
7719;SDS011;3902;49.474;8.616;2024-03-07T03:05:50;24.80;;;21.10;;
7719;SDS011;3902;49.474;8.616;2024-03-07T03:08:16;24.80;;;22.20;;
7719;SDS011;3902;49.474;8.616;2024-03-07T03:10:42;24.50;;;21.90;;
7719;SDS011;3902;49.474;8.616;2024-03-07T03:13:09;25.40;;;21.67;;
7719;SDS011;3902;49.474;8.616;2024-03-07T03:15:35;25.37;;;22.63;;
7719;SDS011;3902;49.474;8.616;2024-03-07T03:18:02;24.43;;;21.87;;
7719;SDS011;3902;49.474;8.616;2024-03-07T03:20:28;24.47;;;20.97;;
7719;SDS011;3902;49.474;8.616;2024-03-07T03:23:03;24.70;;;21.20;;
7719;SDS011;3902;49.474;8.616;2024-03-07T03:25:30;23.23;;;20.80;;
7719;SDS011;3902;49.474;8.616;2024-03-07T03:27:59;24.03;;;21.43;;
7719;SDS011;3902;49.474;8.616;2024-03-07T03:30:26;24.50;;;21.90;;
7719;SDS011;3902;49.474;8.616;2024-03-07T03:32:52;26.33;;;23.53;;
7719;SDS011;3902;49.474;8.616;2024-03-07T03:35:17;24.00;;;20.00;;
7719;SDS011;3902;49.474;8.616;2024-03-07T03:37:44;23.53;;;21.13;;
7719;SDS011;3902;49.474;8.616;2024-03-07T03:40:10;27.00;;;22.30;;
7719;SDS011;3902;49.474;8.616;2024-03-07T03:42:38;23.80;;;20.73;;
7719;SDS011;3902;49.474;8.616;2024-03-07T03:45:04;24.63;;;20.73;;
7719;SDS011;3902;49.474;8.616;2024-03-07T03:47:34;25.07;;;22.40;;
7719;SDS011;3902;49.474;8.616;2024-03-07T03:50:01;24.30;;;21.73;;
7719;SDS011;3902;49.474;8.616;2024-03-07T03:52:28;23.13;;;20.50;;
7719;SDS011;3902;49.474;8.616;2024-03-07T03:54:54;17.37;;;15.57;;
7719;SDS011;3902;49.474;8.616;2024-03-07T03:57:19;23.17;;;20.77;;
7719;SDS011;3902;49.474;8.616;2024-03-07T03:59:45;23.63;;;21.13;;
7719;SDS011;3902;49.474;8.616;2024-03-07T04:02:10;22.43;;;19.97;;
7719;SDS011;3902;49.474;8.616;2024-03-07T04:04:42;23.00;;;19.37;;
7719;SDS011;3902;49.474;8.616;2024-03-07T04:07:08;23.13;;;20.43;;
7719;SDS011;3902;49.474;8.616;2024-03-07T04:09:33;22.73;;;20.03;;
7719;SDS011;3902;49.474;8.616;2024-03-07T04:11:59;21.70;;;19.50;;
7719;SDS011;3902;49.474;8.616;2024-03-07T04:14:25;22.77;;;19.97;;
7719;SDS011;3902;49.474;8.616;2024-03-07T04:16:51;22.37;;;19.97;;
7719;SDS011;3902;49.474;8.616;2024-03-07T04:19:17;20.67;;;18.57;;
7719;SDS011;3902;49.474;8.616;2024-03-07T04:21:45;21.77;;;19.50;;
7719;SDS011;3902;49.474;8.616;2024-03-07T04:24:11;22.87;;;20.47;;
7719;SDS011;3902;49.474;8.616;2024-03-07T04:26:37;23.83;;;21.10;;
7719;SDS011;3902;49.474;8.616;2024-03-07T04:29:02;23.00;;;20.50;;
7719;SDS011;3902;49.474;8.616;2024-03-07T04:31:28;22.83;;;20.13;;
7719;SDS011;3902;49.474;8.616;2024-03-07T04:33:54;21.47;;;19.10;;
7719;SDS011;3902;49.474;8.616;2024-03-07T04:36:19;22.90;;;20.53;;
7719;SDS011;3902;49.474;8.616;2024-03-07T04:38:45;21.70;;;19.50;;
7719;SDS011;3902;49.474;8.616;2024-03-07T04:41:11;21.73;;;19.03;;
7719;SDS011;3902;49.474;8.616;2024-03-07T04:43:36;22.77;;;20.47;;
7719;SDS011;3902;49.474;8.616;2024-03-07T04:46:02;21.27;;;19.03;;
7719;SDS011;3902;49.474;8.616;2024-03-07T04:48:30;27.70;;;20.20;;
7719;SDS011;3902;49.474;8.616;2024-03-07T04:50:55;23.30;;;20.10;;
7719;SDS011;3902;49.474;8.616;2024-03-07T04:53:22;22.00;;;19.60;;
7719;SDS011;3902;49.474;8.616;2024-03-07T04:55:47;22.97;;;20.30;;
7719;SDS011;3902;49.474;8.616;2024-03-07T04:58:13;23.20;;;20.67;;
7719;SDS011;3902;49.474;8.616;2024-03-07T05:00:38;25.50;;;21.37;;
7719;SDS011;3902;49.474;8.616;2024-03-07T05:03:04;21.67;;;19.40;;
7719;SDS011;3902;49.474;8.616;2024-03-07T05:05:30;21.20;;;19.00;;
7719;SDS011;3902;49.474;8.616;2024-03-07T05:07:55;22.00;;;19.60;;
7719;SDS011;3902;49.474;8.616;2024-03-07T05:10:21;22.63;;;20.10;;
7719;SDS011;3902;49.474;8.616;2024-03-07T05:12:46;21.90;;;19.33;;
7719;SDS011;3902;49.474;8.616;2024-03-07T05:15:12;23.20;;;19.90;;
7719;SDS011;3902;49.474;8.616;2024-03-07T05:17:37;22.07;;;19.10;;
7719;SDS011;3902;49.474;8.616;2024-03-07T05:20:04;20.97;;;18.87;;
7719;SDS011;3902;49.474;8.616;2024-03-07T05:22:35;23.13;;;19.67;;
7719;SDS011;3902;49.474;8.616;2024-03-07T05:25:04;22.47;;;19.43;;
7719;SDS011;3902;49.474;8.616;2024-03-07T05:27:30;21.13;;;19.03;;
7719;SDS011;3902;49.474;8.616;2024-03-07T05:29:56;20.60;;;18.20;;
7719;SDS011;3902;49.474;8.616;2024-03-07T05:34:51;26.13;;;19.93;;
7719;SDS011;3902;49.474;8.616;2024-03-07T05:37:20;22.13;;;19.27;;
7719;SDS011;3902;49.474;8.616;2024-03-07T05:39:49;21.83;;;19.57;;
7719;SDS011;3902;49.474;8.616;2024-03-07T05:42:15;20.77;;;18.57;;
7719;SDS011;3902;49.474;8.616;2024-03-07T05:44:41;19.47;;;17.37;;
7719;SDS011;3902;49.474;8.616;2024-03-07T05:47:07;20.63;;;18.43;;
7719;SDS011;3902;49.474;8.616;2024-03-07T05:49:33;20.10;;;17.97;;
7719;SDS011;3902;49.474;8.616;2024-03-07T05:51:59;21.73;;;17.90;;
7719;SDS011;3902;49.474;8.616;2024-03-07T05:54:25;19.70;;;17.60;;
7719;SDS011;3902;49.474;8.616;2024-03-07T05:56:50;22.33;;;19.93;;
7719;SDS011;3902;49.474;8.616;2024-03-07T05:59:16;22.93;;;19.90;;
7719;SDS011;3902;49.474;8.616;2024-03-07T06:01:42;23.90;;;20.90;;
7719;SDS011;3902;49.474;8.616;2024-03-07T06:04:07;21.63;;;19.30;;
7719;SDS011;3902;49.474;8.616;2024-03-07T06:06:35;21.00;;;18.40;;
7719;SDS011;3902;49.474;8.616;2024-03-07T06:09:02;20.40;;;18.10;;
7719;SDS011;3902;49.474;8.616;2024-03-07T06:11:35;21.17;;;18.97;;
7719;SDS011;3902;49.474;8.616;2024-03-07T06:14:02;21.97;;;19.23;;
7719;SDS011;3902;49.474;8.616;2024-03-07T06:16:31;20.37;;;18.07;;
7719;SDS011;3902;49.474;8.616;2024-03-07T06:18:59;20.47;;;17.63;;
7719;SDS011;3902;49.474;8.616;2024-03-07T06:21:26;18.80;;;16.83;;
7719;SDS011;3902;49.474;8.616;2024-03-07T06:23:52;21.03;;;18.73;;
7719;SDS011;3902;49.474;8.616;2024-03-07T06:26:34;20.60;;;18.40;;
7719;SDS011;3902;49.474;8.616;2024-03-07T06:29:24;20.07;;;17.80;;
7719;SDS011;3902;49.474;8.616;2024-03-07T06:31:49;20.80;;;18.60;;
7719;SDS011;3902;49.474;8.616;2024-03-07T06:34:15;21.90;;;19.60;;
7719;SDS011;3902;49.474;8.616;2024-03-07T06:36:40;20.07;;;18.00;;
7719;SDS011;3902;49.474;8.616;2024-03-07T06:39:06;22.50;;;18.83;;
7719;SDS011;3902;49.474;8.616;2024-03-07T06:41:32;21.33;;;19.03;;
7719;SDS011;3902;49.474;8.616;2024-03-07T06:43:58;22.43;;;20.07;;
7719;SDS011;3902;49.474;8.616;2024-03-07T06:46:24;21.37;;;18.43;;
7719;SDS011;3902;49.474;8.616;2024-03-07T06:48:49;21.40;;;18.03;;
7719;SDS011;3902;49.474;8.616;2024-03-07T06:51:16;19.73;;;17.60;;
7719;SDS011;3902;49.474;8.616;2024-03-07T06:53:42;20.33;;;18.13;;
7719;SDS011;3902;49.474;8.616;2024-03-07T06:56:08;20.60;;;18.43;;
7719;SDS011;3902;49.474;8.616;2024-03-07T06:58:34;19.43;;;17.43;;
7719;SDS011;3902;49.474;8.616;2024-03-07T07:00:59;21.40;;;17.73;;
7719;SDS011;3902;49.474;8.616;2024-03-07T07:03:26;18.43;;;16.53;;
7719;SDS011;3902;49.474;8.616;2024-03-07T07:05:53;19.20;;;17.10;;
7719;SDS011;3902;49.474;8.616;2024-03-07T07:08:19;18.93;;;16.73;;
7719;SDS011;3902;49.474;8.616;2024-03-07T07:10:45;18.80;;;16.90;;
7719;SDS011;3902;49.474;8.616;2024-03-07T07:13:12;20.40;;;18.20;;
7719;SDS011;3902;49.474;8.616;2024-03-07T07:15:38;19.50;;;17.50;;
7719;SDS011;3902;49.474;8.616;2024-03-07T07:18:04;18.57;;;16.57;;
7719;SDS011;3902;49.474;8.616;2024-03-07T07:20:31;20.30;;;18.10;;
7719;SDS011;3902;49.474;8.616;2024-03-07T07:22:59;19.50;;;16.80;;
7719;SDS011;3902;49.474;8.616;2024-03-07T07:25:27;18.80;;;16.50;;
7719;SDS011;3902;49.474;8.616;2024-03-07T07:27:52;18.13;;;16.37;;
7719;SDS011;3902;49.474;8.616;2024-03-07T07:30:19;18.40;;;16.47;;
7719;SDS011;3902;49.474;8.616;2024-03-07T07:32:48;20.03;;;17.93;;
7719;SDS011;3902;49.474;8.616;2024-03-07T07:35:15;20.47;;;18.20;;
7719;SDS011;3902;49.474;8.616;2024-03-07T07:37:41;19.53;;;17.43;;
7719;SDS011;3902;49.474;8.616;2024-03-07T07:40:09;20.77;;;18.53;;
7719;SDS011;3902;49.474;8.616;2024-03-07T07:42:42;19.87;;;17.83;;
7719;SDS011;3902;49.474;8.616;2024-03-07T07:45:08;21.27;;;19.03;;
7719;SDS011;3902;49.474;8.616;2024-03-07T07:47:38;20.13;;;18.13;;
7719;SDS011;3902;49.474;8.616;2024-03-07T07:50:11;19.63;;;17.53;;
7719;SDS011;3902;49.474;8.616;2024-03-07T07:52:42;20.80;;;18.60;;
7719;SDS011;3902;49.474;8.616;2024-03-07T07:55:18;20.80;;;18.60;;
7719;SDS011;3902;49.474;8.616;2024-03-07T07:57:44;21.20;;;18.50;;
7719;SDS011;3902;49.474;8.616;2024-03-07T08:00:12;22.33;;;20.03;;
7719;SDS011;3902;49.474;8.616;2024-03-07T08:02:46;20.00;;;17.90;;
7719;SDS011;3902;49.474;8.616;2024-03-07T08:05:13;21.50;;;19.30;;
7719;SDS011;3902;49.474;8.616;2024-03-07T08:07:43;21.47;;;18.87;;
7719;SDS011;3902;49.474;8.616;2024-03-07T08:10:09;25.60;;;19.70;;
7719;SDS011;3902;49.474;8.616;2024-03-07T08:12:35;21.77;;;18.87;;
7719;SDS011;3902;49.474;8.616;2024-03-07T08:15:02;22.83;;;19.93;;
7719;SDS011;3902;49.474;8.616;2024-03-07T08:17:28;22.43;;;20.03;;
7719;SDS011;3902;49.474;8.616;2024-03-07T08:19:55;21.37;;;19.07;;
7719;SDS011;3902;49.474;8.616;2024-03-07T08:22:21;19.93;;;17.80;;
7719;SDS011;3902;49.474;8.616;2024-03-07T08:24:46;20.50;;;18.40;;
7719;SDS011;3902;49.474;8.616;2024-03-07T08:27:12;20.13;;;18.13;;
7719;SDS011;3902;49.474;8.616;2024-03-07T08:29:37;21.80;;;19.50;;
7719;SDS011;3902;49.474;8.616;2024-03-07T08:32:04;19.43;;;17.40;;
7719;SDS011;3902;49.474;8.616;2024-03-07T08:34:30;21.80;;;19.47;;
7719;SDS011;3902;49.474;8.616;2024-03-07T08:36:56;22.80;;;19.77;;
7719;SDS011;3902;49.474;8.616;2024-03-07T08:39:21;20.93;;;18.77;;
7719;SDS011;3902;49.474;8.616;2024-03-07T08:41:48;20.20;;;18.10;;
7719;SDS011;3902;49.474;8.616;2024-03-07T08:44:13;20.27;;;18.17;;
7719;SDS011;3902;49.474;8.616;2024-03-07T08:46:39;19.43;;;17.20;;
7719;SDS011;3902;49.474;8.616;2024-03-07T08:49:05;19.30;;;16.80;;
7719;SDS011;3902;49.474;8.616;2024-03-07T08:51:30;18.13;;;16.33;;
7719;SDS011;3902;49.474;8.616;2024-03-07T08:53:56;17.27;;;15.57;;
7719;SDS011;3902;49.474;8.616;2024-03-07T08:56:22;16.17;;;14.57;;
7719;SDS011;3902;49.474;8.616;2024-03-07T08:58:48;17.70;;;15.97;;
7719;SDS011;3902;49.474;8.616;2024-03-07T09:01:13;14.73;;;13.33;;
7719;SDS011;3902;49.474;8.616;2024-03-07T09:03:39;16.13;;;14.53;;
7719;SDS011;3902;49.474;8.616;2024-03-07T09:06:04;15.60;;;14.07;;
7719;SDS011;3902;49.474;8.616;2024-03-07T09:08:30;15.37;;;13.77;;
7719;SDS011;3902;49.474;8.616;2024-03-07T09:10:56;16.20;;;14.50;;
7719;SDS011;3902;49.474;8.616;2024-03-07T09:13:23;15.33;;;13.83;;
7719;SDS011;3902;49.474;8.616;2024-03-07T09:15:48;15.53;;;13.97;;
7719;SDS011;3902;49.474;8.616;2024-03-07T09:18:14;14.50;;;13.20;;
7719;SDS011;3902;49.474;8.616;2024-03-07T09:20:41;16.43;;;14.73;;
7719;SDS011;3902;49.474;8.616;2024-03-07T09:23:06;14.93;;;13.43;;
7719;SDS011;3902;49.474;8.616;2024-03-07T09:25:32;15.43;;;13.83;;
7719;SDS011;3902;49.474;8.616;2024-03-07T09:28:00;15.23;;;13.80;;
7719;SDS011;3902;49.474;8.616;2024-03-07T09:30:27;16.10;;;14.50;;
7719;SDS011;3902;49.474;8.616;2024-03-07T09:32:53;15.70;;;14.00;;
7719;SDS011;3902;49.474;8.616;2024-03-07T09:35:21;15.57;;;14.07;;
7719;SDS011;3902;49.474;8.616;2024-03-07T09:37:47;15.03;;;13.53;;
7719;SDS011;3902;49.474;8.616;2024-03-07T09:40:12;14.57;;;13.17;;
7719;SDS011;3902;49.474;8.616;2024-03-07T09:42:42;15.60;;;14.00;;
7719;SDS011;3902;49.474;8.616;2024-03-07T09:45:13;14.27;;;12.90;;
7719;SDS011;3902;49.474;8.616;2024-03-07T09:47:40;15.27;;;13.77;;
7719;SDS011;3902;49.474;8.616;2024-03-07T09:50:08;14.40;;;13.00;;
7719;SDS011;3902;49.474;8.616;2024-03-07T09:52:34;15.10;;;13.70;;
7719;SDS011;3902;49.474;8.616;2024-03-07T09:55:00;15.30;;;13.80;;
7719;SDS011;3902;49.474;8.616;2024-03-07T09:57:27;16.43;;;14.73;;
7719;SDS011;3902;49.474;8.616;2024-03-07T09:59:57;15.67;;;14.10;;
7719;SDS011;3902;49.474;8.616;2024-03-07T10:02:24;16.00;;;13.70;;
7719;SDS011;3902;49.474;8.616;2024-03-07T10:04:51;16.27;;;14.53;;
7719;SDS011;3902;49.474;8.616;2024-03-07T10:07:19;16.43;;;14.73;;
7719;SDS011;3902;49.474;8.616;2024-03-07T10:09:45;15.40;;;13.90;;
7719;SDS011;3902;49.474;8.616;2024-03-07T10:12:12;15.50;;;14.00;;
7719;SDS011;3902;49.474;8.616;2024-03-07T10:14:38;16.10;;;14.40;;
7719;SDS011;3902;49.474;8.616;2024-03-07T10:17:04;14.60;;;13.20;;
7719;SDS011;3902;49.474;8.616;2024-03-07T10:19:30;16.50;;;14.80;;
7719;SDS011;3902;49.474;8.616;2024-03-07T10:21:56;15.77;;;14.13;;
7719;SDS011;3902;49.474;8.616;2024-03-07T10:24:26;14.30;;;12.90;;
7719;SDS011;3902;49.474;8.616;2024-03-07T10:26:53;17.17;;;15.43;;
7719;SDS011;3902;49.474;8.616;2024-03-07T10:29:21;15.33;;;13.70;;
7719;SDS011;3902;49.474;8.616;2024-03-07T10:31:48;15.70;;;14.10;;
7719;SDS011;3902;49.474;8.616;2024-03-07T10:34:14;17.60;;;15.80;;
7719;SDS011;3902;49.474;8.616;2024-03-07T10:36:42;16.63;;;14.93;;
7719;SDS011;3902;49.474;8.616;2024-03-07T10:39:08;16.97;;;15.20;;
7719;SDS011;3902;49.474;8.616;2024-03-07T10:41:47;16.43;;;14.83;;
7719;SDS011;3902;49.474;8.616;2024-03-07T10:44:20;16.13;;;14.53;;
7719;SDS011;3902;49.474;8.616;2024-03-07T10:46:53;16.07;;;14.57;;
7719;SDS011;3902;49.474;8.616;2024-03-07T10:49:20;14.57;;;13.07;;
7719;SDS011;3902;49.474;8.616;2024-03-07T10:54:48;16.83;;;15.13;;
7719;SDS011;3902;49.474;8.616;2024-03-07T11:00:15;15.40;;;13.63;;
7719;SDS011;3902;49.474;8.616;2024-03-07T11:03:00;15.67;;;13.97;;
7719;SDS011;3902;49.474;8.616;2024-03-07T11:05:28;15.07;;;13.47;;
7719;SDS011;3902;49.474;8.616;2024-03-07T11:08:00;14.87;;;13.30;;
7719;SDS011;3902;49.474;8.616;2024-03-07T11:10:36;15.10;;;13.60;;
7719;SDS011;3902;49.474;8.616;2024-03-07T11:13:11;16.53;;;14.93;;
7719;SDS011;3902;49.474;8.616;2024-03-07T11:15:42;15.80;;;14.20;;
7719;SDS011;3902;49.474;8.616;2024-03-07T11:18:10;15.97;;;14.27;;
7719;SDS011;3902;49.474;8.616;2024-03-07T11:20:38;16.53;;;14.90;;
7719;SDS011;3902;49.474;8.616;2024-03-07T11:26:01;15.00;;;13.50;;
7719;SDS011;3902;49.474;8.616;2024-03-07T11:28:32;16.37;;;14.67;;
7719;SDS011;3902;49.474;8.616;2024-03-07T11:33:37;15.03;;;13.43;;
7719;SDS011;3902;49.474;8.616;2024-03-07T11:36:05;14.00;;;12.53;;
7719;SDS011;3902;49.474;8.616;2024-03-07T11:38:37;12.77;;;11.37;;
7719;SDS011;3902;49.474;8.616;2024-03-07T11:41:03;13.83;;;12.17;;
7719;SDS011;3902;49.474;8.616;2024-03-07T11:43:37;13.77;;;12.27;;
7719;SDS011;3902;49.474;8.616;2024-03-07T11:46:03;12.97;;;11.67;;
7719;SDS011;3902;49.474;8.616;2024-03-07T11:48:38;12.53;;;11.33;;
7719;SDS011;3902;49.474;8.616;2024-03-07T11:51:06;14.07;;;12.60;;
7719;SDS011;3902;49.474;8.616;2024-03-07T11:53:35;13.87;;;12.37;;
7719;SDS011;3902;49.474;8.616;2024-03-07T11:56:03;14.03;;;12.53;;
7719;SDS011;3902;49.474;8.616;2024-03-07T11:58:37;14.70;;;13.20;;
7719;SDS011;3902;49.474;8.616;2024-03-07T12:01:06;15.60;;;14.03;;
7719;SDS011;3902;49.474;8.616;2024-03-07T12:03:35;14.30;;;12.73;;
7719;SDS011;3902;49.474;8.616;2024-03-07T12:06:02;14.73;;;13.17;;
7719;SDS011;3902;49.474;8.616;2024-03-07T12:08:28;16.03;;;13.43;;
7719;SDS011;3902;49.474;8.616;2024-03-07T12:10:54;13.70;;;12.20;;
7719;SDS011;3902;49.474;8.616;2024-03-07T12:13:21;14.30;;;12.90;;
7719;SDS011;3902;49.474;8.616;2024-03-07T12:15:49;14.50;;;12.80;;
7719;SDS011;3902;49.474;8.616;2024-03-07T12:18:16;12.37;;;11.17;;
7719;SDS011;3902;49.474;8.616;2024-03-07T12:20:45;12.10;;;11.00;;
7719;SDS011;3902;49.474;8.616;2024-03-07T12:23:16;13.10;;;11.80;;
7719;SDS011;3902;49.474;8.616;2024-03-07T12:25:44;12.90;;;11.60;;
7719;SDS011;3902;49.474;8.616;2024-03-07T12:28:11;13.60;;;12.20;;
7719;SDS011;3902;49.474;8.616;2024-03-07T12:30:51;11.90;;;10.70;;
7719;SDS011;3902;49.474;8.616;2024-03-07T12:33:19;11.30;;;10.10;;
7719;SDS011;3902;49.474;8.616;2024-03-07T12:35:46;13.60;;;10.80;;
7719;SDS011;3902;49.474;8.616;2024-03-07T12:38:14;14.37;;;12.80;;
7719;SDS011;3902;49.474;8.616;2024-03-07T12:40:44;12.83;;;11.53;;
7719;SDS011;3902;49.474;8.616;2024-03-07T12:43:17;13.00;;;11.60;;
7719;SDS011;3902;49.474;8.616;2024-03-07T12:45:52;11.57;;;10.37;;
7719;SDS011;3902;49.474;8.616;2024-03-07T12:48:23;11.00;;;9.93;;
7719;SDS011;3902;49.474;8.616;2024-03-07T12:50:49;11.53;;;10.47;;
7719;SDS011;3902;49.474;8.616;2024-03-07T12:53:18;11.50;;;10.40;;
7719;SDS011;3902;49.474;8.616;2024-03-07T12:55:47;11.03;;;10.00;;
7719;SDS011;3902;49.474;8.616;2024-03-07T12:58:13;9.93;;;9.00;;
7719;SDS011;3902;49.474;8.616;2024-03-07T13:00:39;9.77;;;8.80;;
7719;SDS011;3902;49.474;8.616;2024-03-07T13:03:06;9.07;;;8.17;;
7719;SDS011;3902;49.474;8.616;2024-03-07T13:05:34;8.20;;;7.40;;
7719;SDS011;3902;49.474;8.616;2024-03-07T13:08:05;9.43;;;8.53;;
7719;SDS011;3902;49.474;8.616;2024-03-07T13:10:36;9.80;;;8.80;;
7719;SDS011;3902;49.474;8.616;2024-03-07T13:13:04;8.07;;;7.27;;
7719;SDS011;3902;49.474;8.616;2024-03-07T13:15:29;9.50;;;8.60;;
7719;SDS011;3902;49.474;8.616;2024-03-07T13:17:55;9.33;;;8.43;;
7719;SDS011;3902;49.474;8.616;2024-03-07T13:20:21;8.80;;;7.90;;
7719;SDS011;3902;49.474;8.616;2024-03-07T13:22:51;8.77;;;7.93;;
7719;SDS011;3902;49.474;8.616;2024-03-07T13:25:17;9.40;;;8.40;;
7719;SDS011;3902;49.474;8.616;2024-03-07T13:27:56;10.27;;;9.27;;
7719;SDS011;3902;49.474;8.616;2024-03-07T13:30:24;10.20;;;9.20;;
7719;SDS011;3902;49.474;8.616;2024-03-07T13:32:56;10.90;;;9.73;;
7719;SDS011;3902;49.474;8.616;2024-03-07T13:35:23;10.50;;;9.00;;
7719;SDS011;3902;49.474;8.616;2024-03-07T13:37:50;10.73;;;9.73;;
7719;SDS011;3902;49.474;8.616;2024-03-07T13:40:20;11.73;;;10.47;;
7719;SDS011;3902;49.474;8.616;2024-03-07T13:42:58;11.80;;;10.70;;
7719;SDS011;3902;49.474;8.616;2024-03-07T13:45:25;10.77;;;9.77;;
7719;SDS011;3902;49.474;8.616;2024-03-07T13:48:03;11.00;;;9.90;;
7719;SDS011;3902;49.474;8.616;2024-03-07T13:50:30;10.83;;;9.67;;
7719;SDS011;3902;49.474;8.616;2024-03-07T13:52:57;10.20;;;9.00;;
7719;SDS011;3902;49.474;8.616;2024-03-07T14:18:35;11.20;;;9.80;;
7719;SDS011;3902;49.474;8.616;2024-03-07T14:21:29;9.87;;;8.90;;
7719;SDS011;3902;49.474;8.616;2024-03-07T14:29:50;10.80;;;9.70;;
7719;SDS011;3902;49.474;8.616;2024-03-07T14:32:36;9.93;;;9.03;;
7719;SDS011;3902;49.474;8.616;2024-03-07T14:35:13;11.30;;;10.20;;
7719;SDS011;3902;49.474;8.616;2024-03-07T14:37:55;10.70;;;9.60;;
7719;SDS011;3902;49.474;8.616;2024-03-07T14:40:27;10.83;;;9.73;;
7719;SDS011;3902;49.474;8.616;2024-03-07T14:42:53;11.17;;;9.90;;
7719;SDS011;3902;49.474;8.616;2024-03-07T14:45:32;10.73;;;9.70;;
7719;SDS011;3902;49.474;8.616;2024-03-07T14:48:01;10.47;;;9.37;;
7719;SDS011;3902;49.474;8.616;2024-03-07T14:50:29;11.40;;;10.30;;
7719;SDS011;3902;49.474;8.616;2024-03-07T14:52:57;10.63;;;9.63;;
7719;SDS011;3902;49.474;8.616;2024-03-07T14:55:23;10.30;;;9.30;;
7719;SDS011;3902;49.474;8.616;2024-03-07T14:57:49;10.90;;;9.90;;
7719;SDS011;3902;49.474;8.616;2024-03-07T15:00:15;11.00;;;9.90;;
7719;SDS011;3902;49.474;8.616;2024-03-07T15:02:45;10.47;;;9.47;;
7719;SDS011;3902;49.474;8.616;2024-03-07T15:05:12;10.80;;;9.70;;
7719;SDS011;3902;49.474;8.616;2024-03-07T15:07:39;10.83;;;9.83;;
7719;SDS011;3902;49.474;8.616;2024-03-07T15:10:05;11.47;;;10.30;;
7719;SDS011;3902;49.474;8.616;2024-03-07T15:12:43;10.80;;;9.73;;
7719;SDS011;3902;49.474;8.616;2024-03-07T15:15:12;10.80;;;9.80;;
7719;SDS011;3902;49.474;8.616;2024-03-07T15:17:39;10.93;;;9.80;;
7719;SDS011;3902;49.474;8.616;2024-03-07T15:20:07;10.77;;;9.67;;
7719;SDS011;3902;49.474;8.616;2024-03-07T15:22:40;10.60;;;9.60;;
7719;SDS011;3902;49.474;8.616;2024-03-07T15:25:11;10.13;;;9.13;;
7719;SDS011;3902;49.474;8.616;2024-03-07T15:27:40;10.63;;;9.50;;
7719;SDS011;3902;49.474;8.616;2024-03-07T15:30:06;11.47;;;10.37;;
7719;SDS011;3902;49.474;8.616;2024-03-07T15:32:39;9.60;;;8.70;;
7719;SDS011;3902;49.474;8.616;2024-03-07T15:35:09;9.93;;;8.93;;